sensor_id;sensor_type;location;lat;lon;timestamp;temperature;humidity
31733;DHT22;18312;51.486;7.144;2023-07-09T00:00:37;23.10;72.90
31733;DHT22;18312;51.486;7.144;2023-07-09T00:03:05;23.00;73.10
31733;DHT22;18312;51.486;7.144;2023-07-09T00:05:32;22.90;73.90
31733;DHT22;18312;51.486;7.144;2023-07-09T00:08:00;22.70;74.80
31733;DHT22;18312;51.486;7.144;2023-07-09T00:10:27;22.70;74.90
31733;DHT22;18312;51.486;7.144;2023-07-09T00:12:54;22.70;75.40
31733;DHT22;18312;51.486;7.144;2023-07-09T00:15:20;22.60;75.40
31733;DHT22;18312;51.486;7.144;2023-07-09T00:17:47;22.60;76.00
31733;DHT22;18312;51.486;7.144;2023-07-09T00:20:18;22.60;76.60
31733;DHT22;18312;51.486;7.144;2023-07-09T00:22:45;22.50;76.50
31733;DHT22;18312;51.486;7.144;2023-07-09T00:25:15;22.50;77.10
31733;DHT22;18312;51.486;7.144;2023-07-09T00:27:42;22.40;77.20
31733;DHT22;18312;51.486;7.144;2023-07-09T00:30:13;22.30;78.00
31733;DHT22;18312;51.486;7.144;2023-07-09T00:32:41;22.30;78.40
31733;DHT22;18312;51.486;7.144;2023-07-09T00:35:10;22.20;78.80
31733;DHT22;18312;51.486;7.144;2023-07-09T00:37:39;22.20;79.20
31733;DHT22;18312;51.486;7.144;2023-07-09T00:40:15;22.20;79.70
31733;DHT22;18312;51.486;7.144;2023-07-09T00:42:45;22.20;80.00
31733;DHT22;18312;51.486;7.144;2023-07-09T00:45:19;22.20;80.60
31733;DHT22;18312;51.486;7.144;2023-07-09T00:47:50;22.20;80.50
31733;DHT22;18312;51.486;7.144;2023-07-09T00:50:29;22.10;81.10
31733;DHT22;18312;51.486;7.144;2023-07-09T00:53:02;22.00;81.90
31733;DHT22;18312;51.486;7.144;2023-07-09T00:55:37;22.00;81.90
31733;DHT22;18312;51.486;7.144;2023-07-09T00:58:07;21.90;82.70
31733;DHT22;18312;51.486;7.144;2023-07-09T01:00:40;21.80;83.00
31733;DHT22;18312;51.486;7.144;2023-07-09T01:03:17;21.90;82.60
31733;DHT22;18312;51.486;7.144;2023-07-09T01:05:46;22.00;82.80
31733;DHT22;18312;51.486;7.144;2023-07-09T01:08:17;22.10;82.40
31733;DHT22;18312;51.486;7.144;2023-07-09T01:10:46;21.90;82.70
31733;DHT22;18312;51.486;7.144;2023-07-09T01:13:12;21.80;82.00
31733;DHT22;18312;51.486;7.144;2023-07-09T01:15:40;21.60;84.60
31733;DHT22;18312;51.486;7.144;2023-07-09T01:18:07;21.50;86.20
31733;DHT22;18312;51.486;7.144;2023-07-09T01:20:37;21.60;87.20
31733;DHT22;18312;51.486;7.144;2023-07-09T01:23:06;21.70;86.60
31733;DHT22;18312;51.486;7.144;2023-07-09T01:25:33;21.80;86.40
31733;DHT22;18312;51.486;7.144;2023-07-09T01:28:00;21.80;86.30
31733;DHT22;18312;51.486;7.144;2023-07-09T01:30:30;21.80;86.70
31733;DHT22;18312;51.486;7.144;2023-07-09T01:33:00;21.70;87.20
31733;DHT22;18312;51.486;7.144;2023-07-09T01:35:29;21.70;87.70
31733;DHT22;18312;51.486;7.144;2023-07-09T01:37:57;21.70;88.00
31733;DHT22;18312;51.486;7.144;2023-07-09T01:40:26;21.60;88.20
31733;DHT22;18312;51.486;7.144;2023-07-09T01:42:55;21.60;89.00
31733;DHT22;18312;51.486;7.144;2023-07-09T01:45:22;21.50;89.90
31733;DHT22;18312;51.486;7.144;2023-07-09T01:47:49;21.50;90.00
31733;DHT22;18312;51.486;7.144;2023-07-09T01:50:16;21.50;90.00
31733;DHT22;18312;51.486;7.144;2023-07-09T01:52:44;21.40;90.40
31733;DHT22;18312;51.486;7.144;2023-07-09T01:55:13;21.30;90.70
31733;DHT22;18312;51.486;7.144;2023-07-09T01:57:43;21.20;90.90
31733;DHT22;18312;51.486;7.144;2023-07-09T02:00:12;21.20;91.20
31733;DHT22;18312;51.486;7.144;2023-07-09T02:02:40;21.20;91.60
31733;DHT22;18312;51.486;7.144;2023-07-09T02:05:08;21.10;91.70
31733;DHT22;18312;51.486;7.144;2023-07-09T02:07:35;21.00;92.10
31733;DHT22;18312;51.486;7.144;2023-07-09T02:10:03;20.90;92.70
31733;DHT22;18312;51.486;7.144;2023-07-09T02:12:29;20.90;92.70
31733;DHT22;18312;51.486;7.144;2023-07-09T02:14:57;21.00;93.30
31733;DHT22;18312;51.486;7.144;2023-07-09T02:17:24;21.00;93.20
31733;DHT22;18312;51.486;7.144;2023-07-09T02:19:51;21.00;93.90
31733;DHT22;18312;51.486;7.144;2023-07-09T02:22:18;21.00;93.80
31733;DHT22;18312;51.486;7.144;2023-07-09T02:24:45;20.90;94.00
31733;DHT22;18312;51.486;7.144;2023-07-09T02:27:17;20.80;94.60
31733;DHT22;18312;51.486;7.144;2023-07-09T02:29:44;20.70;94.80
31733;DHT22;18312;51.486;7.144;2023-07-09T02:32:16;20.70;95.10
31733;DHT22;18312;51.486;7.144;2023-07-09T02:34:43;20.60;95.80
31733;DHT22;18312;51.486;7.144;2023-07-09T02:37:15;20.50;96.10
31733;DHT22;18312;51.486;7.144;2023-07-09T02:39:43;20.50;96.70
31733;DHT22;18312;51.486;7.144;2023-07-09T02:42:10;20.40;97.40
31733;DHT22;18312;51.486;7.144;2023-07-09T02:44:37;20.40;98.10
31733;DHT22;18312;51.486;7.144;2023-07-09T02:47:05;20.30;99.00
31733;DHT22;18312;51.486;7.144;2023-07-09T02:49:33;20.30;99.60
31733;DHT22;18312;51.486;7.144;2023-07-09T02:52:01;20.30;99.90
31733;DHT22;18312;51.486;7.144;2023-07-09T02:54:28;20.30;99.90
31733;DHT22;18312;51.486;7.144;2023-07-09T02:56:54;20.30;99.90
31733;DHT22;18312;51.486;7.144;2023-07-09T02:59:21;20.30;99.90
31733;DHT22;18312;51.486;7.144;2023-07-09T03:01:48;20.40;99.90
31733;DHT22;18312;51.486;7.144;2023-07-09T03:04:15;20.40;99.90
31733;DHT22;18312;51.486;7.144;2023-07-09T03:06:43;20.40;99.90
31733;DHT22;18312;51.486;7.144;2023-07-09T03:09:10;20.40;99.90
31733;DHT22;18312;51.486;7.144;2023-07-09T03:11:37;20.40;99.90
31733;DHT22;18312;51.486;7.144;2023-07-09T03:14:04;20.40;99.90
31733;DHT22;18312;51.486;7.144;2023-07-09T03:16:32;20.30;99.90
31733;DHT22;18312;51.486;7.144;2023-07-09T03:19:00;20.30;99.90
31733;DHT22;18312;51.486;7.144;2023-07-09T03:21:27;20.20;99.90
31733;DHT22;18312;51.486;7.144;2023-07-09T03:23:56;20.30;99.90
31733;DHT22;18312;51.486;7.144;2023-07-09T03:26:23;20.30;99.90
31733;DHT22;18312;51.486;7.144;2023-07-09T03:28:51;20.30;99.90
31733;DHT22;18312;51.486;7.144;2023-07-09T03:31:18;20.40;99.90
31733;DHT22;18312;51.486;7.144;2023-07-09T03:33:46;20.30;99.90
31733;DHT22;18312;51.486;7.144;2023-07-09T03:36:13;20.30;99.90
31733;DHT22;18312;51.486;7.144;2023-07-09T03:38:39;20.30;99.90
31733;DHT22;18312;51.486;7.144;2023-07-09T03:41:08;20.30;99.90
31733;DHT22;18312;51.486;7.144;2023-07-09T03:43:34;20.30;99.90
31733;DHT22;18312;51.486;7.144;2023-07-09T03:46:01;20.30;99.90
31733;DHT22;18312;51.486;7.144;2023-07-09T03:48:28;20.30;99.90
31733;DHT22;18312;51.486;7.144;2023-07-09T03:50:54;20.30;99.90
31733;DHT22;18312;51.486;7.144;2023-07-09T03:53:21;20.30;99.90
31733;DHT22;18312;51.486;7.144;2023-07-09T03:55:52;20.30;99.90
31733;DHT22;18312;51.486;7.144;2023-07-09T03:58:20;20.40;99.90
31733;DHT22;18312;51.486;7.144;2023-07-09T04:00:47;20.40;99.90
31733;DHT22;18312;51.486;7.144;2023-07-09T04:03:14;20.40;99.90
31733;DHT22;18312;51.486;7.144;2023-07-09T04:05:40;20.40;99.90
31733;DHT22;18312;51.486;7.144;2023-07-09T04:08:07;20.30;99.90
31733;DHT22;18312;51.486;7.144;2023-07-09T04:10:34;20.30;99.90
31733;DHT22;18312;51.486;7.144;2023-07-09T04:13:00;20.30;99.90
31733;DHT22;18312;51.486;7.144;2023-07-09T04:15:29;20.40;99.90
31733;DHT22;18312;51.486;7.144;2023-07-09T04:17:56;20.40;99.90
31733;DHT22;18312;51.486;7.144;2023-07-09T04:20:22;20.50;99.90
31733;DHT22;18312;51.486;7.144;2023-07-09T04:22:49;20.60;99.90
31733;DHT22;18312;51.486;7.144;2023-07-09T04:25:16;20.70;99.90
31733;DHT22;18312;51.486;7.144;2023-07-09T04:27:43;20.80;99.90
31733;DHT22;18312;51.486;7.144;2023-07-09T04:30:12;20.90;99.90
31733;DHT22;18312;51.486;7.144;2023-07-09T04:32:41;20.90;99.90
31733;DHT22;18312;51.486;7.144;2023-07-09T04:35:09;21.00;99.90
31733;DHT22;18312;51.486;7.144;2023-07-09T04:37:37;21.00;99.90
31733;DHT22;18312;51.486;7.144;2023-07-09T04:40:05;20.90;99.90
31733;DHT22;18312;51.486;7.144;2023-07-09T04:42:33;20.90;99.90
31733;DHT22;18312;51.486;7.144;2023-07-09T04:45:00;21.00;99.90
31733;DHT22;18312;51.486;7.144;2023-07-09T04:47:27;21.00;99.90
31733;DHT22;18312;51.486;7.144;2023-07-09T04:49:55;21.20;99.90
31733;DHT22;18312;51.486;7.144;2023-07-09T04:52:22;21.30;99.90
31733;DHT22;18312;51.486;7.144;2023-07-09T04:54:48;21.40;99.90
31733;DHT22;18312;51.486;7.144;2023-07-09T04:57:16;21.40;99.90
31733;DHT22;18312;51.486;7.144;2023-07-09T04:59:43;21.50;99.90
31733;DHT22;18312;51.486;7.144;2023-07-09T05:02:10;21.50;99.90
31733;DHT22;18312;51.486;7.144;2023-07-09T05:04:37;21.60;99.90
31733;DHT22;18312;51.486;7.144;2023-07-09T05:07:05;21.70;99.90
31733;DHT22;18312;51.486;7.144;2023-07-09T05:09:32;21.80;99.90
31733;DHT22;18312;51.486;7.144;2023-07-09T05:11:59;21.70;99.90
31733;DHT22;18312;51.486;7.144;2023-07-09T05:14:27;21.90;99.90
31733;DHT22;18312;51.486;7.144;2023-07-09T05:16:53;22.00;99.90
31733;DHT22;18312;51.486;7.144;2023-07-09T05:19:20;22.20;99.90
31733;DHT22;18312;51.486;7.144;2023-07-09T05:21:47;22.30;99.90
31733;DHT22;18312;51.486;7.144;2023-07-09T05:24:15;22.40;99.90
31733;DHT22;18312;51.486;7.144;2023-07-09T05:26:42;22.60;99.90
31733;DHT22;18312;51.486;7.144;2023-07-09T05:29:08;22.70;99.90
31733;DHT22;18312;51.486;7.144;2023-07-09T05:31:35;22.90;99.90
31733;DHT22;18312;51.486;7.144;2023-07-09T05:34:02;22.90;99.90
31733;DHT22;18312;51.486;7.144;2023-07-09T05:36:29;22.90;99.90
31733;DHT22;18312;51.486;7.144;2023-07-09T05:38:56;23.10;99.90
31733;DHT22;18312;51.486;7.144;2023-07-09T05:41:24;23.20;99.90
31733;DHT22;18312;51.486;7.144;2023-07-09T05:43:51;23.30;99.90
31733;DHT22;18312;51.486;7.144;2023-07-09T05:46:18;23.80;99.90
31733;DHT22;18312;51.486;7.144;2023-07-09T05:48:45;23.90;99.90
31733;DHT22;18312;51.486;7.144;2023-07-09T05:51:12;24.20;99.90
31733;DHT22;18312;51.486;7.144;2023-07-09T05:53:39;25.00;98.60
31733;DHT22;18312;51.486;7.144;2023-07-09T05:56:06;25.20;97.80
31733;DHT22;18312;51.486;7.144;2023-07-09T05:58:34;25.50;96.20
31733;DHT22;18312;51.486;7.144;2023-07-09T06:01:01;26.30;94.20
31733;DHT22;18312;51.486;7.144;2023-07-09T06:03:29;28.20;90.30
31733;DHT22;18312;51.486;7.144;2023-07-09T06:05:56;29.60;83.40
31733;DHT22;18312;51.486;7.144;2023-07-09T06:08:24;30.80;75.90
31733;DHT22;18312;51.486;7.144;2023-07-09T06:10:56;31.10;73.60
31733;DHT22;18312;51.486;7.144;2023-07-09T06:13:24;32.00;69.00
31733;DHT22;18312;51.486;7.144;2023-07-09T06:15:54;32.50;66.70
31733;DHT22;18312;51.486;7.144;2023-07-09T06:18:21;32.30;64.10
31733;DHT22;18312;51.486;7.144;2023-07-09T06:20:52;32.60;63.80
31733;DHT22;18312;51.486;7.144;2023-07-09T06:23:19;33.30;62.00
31733;DHT22;18312;51.486;7.144;2023-07-09T06:25:46;33.30;60.50
31733;DHT22;18312;51.486;7.144;2023-07-09T06:28:14;33.30;58.50
31733;DHT22;18312;51.486;7.144;2023-07-09T06:30:41;33.70;58.30
31733;DHT22;18312;51.486;7.144;2023-07-09T06:33:11;34.20;57.50
31733;DHT22;18312;51.486;7.144;2023-07-09T06:35:38;34.60;56.20
31733;DHT22;18312;51.486;7.144;2023-07-09T06:38:05;35.00;56.00
31733;DHT22;18312;51.486;7.144;2023-07-09T06:40:32;35.40;54.30
31733;DHT22;18312;51.486;7.144;2023-07-09T06:42:58;35.50;55.30
31733;DHT22;18312;51.486;7.144;2023-07-09T06:45:25;35.70;54.50
31733;DHT22;18312;51.486;7.144;2023-07-09T06:47:52;35.10;54.50
31733;DHT22;18312;51.486;7.144;2023-07-09T06:50:20;34.20;55.80
31733;DHT22;18312;51.486;7.144;2023-07-09T06:52:47;32.60;58.50
31733;DHT22;18312;51.486;7.144;2023-07-09T06:55:14;32.50;59.10
31733;DHT22;18312;51.486;7.144;2023-07-09T06:57:43;32.30;58.80
31733;DHT22;18312;51.486;7.144;2023-07-09T07:00:11;31.70;63.30
31733;DHT22;18312;51.486;7.144;2023-07-09T07:02:38;31.20;61.80
31733;DHT22;18312;51.486;7.144;2023-07-09T07:05:05;31.20;64.50
31733;DHT22;18312;51.486;7.144;2023-07-09T07:07:33;30.50;62.20
31733;DHT22;18312;51.486;7.144;2023-07-09T07:10:00;31.40;61.40
31733;DHT22;18312;51.486;7.144;2023-07-09T07:12:28;33.10;59.80
31733;DHT22;18312;51.486;7.144;2023-07-09T07:14:56;33.30;58.60
31733;DHT22;18312;51.486;7.144;2023-07-09T07:17:23;32.30;61.50
31733;DHT22;18312;51.486;7.144;2023-07-09T07:19:50;31.40;62.00
31733;DHT22;18312;51.486;7.144;2023-07-09T07:22:17;31.20;62.80
31733;DHT22;18312;51.486;7.144;2023-07-09T07:24:45;33.20;59.40
31733;DHT22;18312;51.486;7.144;2023-07-09T07:27:12;34.70;55.60
31733;DHT22;18312;51.486;7.144;2023-07-09T07:29:40;35.80;53.50
31733;DHT22;18312;51.486;7.144;2023-07-09T07:32:07;36.40;52.80
31733;DHT22;18312;51.486;7.144;2023-07-09T07:34:35;36.40;52.60
31733;DHT22;18312;51.486;7.144;2023-07-09T07:37:01;36.60;52.30
31733;DHT22;18312;51.486;7.144;2023-07-09T07:39:28;37.00;52.30
31733;DHT22;18312;51.486;7.144;2023-07-09T07:41:57;35.80;54.70
31733;DHT22;18312;51.486;7.144;2023-07-09T07:44:24;34.80;55.30
31733;DHT22;18312;51.486;7.144;2023-07-09T07:46:50;34.90;53.60
31733;DHT22;18312;51.486;7.144;2023-07-09T07:49:17;35.80;52.80
31733;DHT22;18312;51.486;7.144;2023-07-09T07:51:44;36.90;50.60
31733;DHT22;18312;51.486;7.144;2023-07-09T07:54:11;37.50;51.40
31733;DHT22;18312;51.486;7.144;2023-07-09T07:56:37;37.70;50.40
31733;DHT22;18312;51.486;7.144;2023-07-09T07:59:06;38.20;48.70
31733;DHT22;18312;51.486;7.144;2023-07-09T08:01:32;38.30;47.60
31733;DHT22;18312;51.486;7.144;2023-07-09T08:04:01;38.20;46.70
31733;DHT22;18312;51.486;7.144;2023-07-09T08:06:28;38.60;48.30
31733;DHT22;18312;51.486;7.144;2023-07-09T08:08:56;38.50;48.30
31733;DHT22;18312;51.486;7.144;2023-07-09T08:11:24;39.00;47.30
31733;DHT22;18312;51.486;7.144;2023-07-09T08:13:51;39.20;46.20
31733;DHT22;18312;51.486;7.144;2023-07-09T08:16:19;39.60;47.10
31733;DHT22;18312;51.486;7.144;2023-07-09T08:18:46;38.90;46.40
31733;DHT22;18312;51.486;7.144;2023-07-09T08:21:13;37.50;48.10
31733;DHT22;18312;51.486;7.144;2023-07-09T08:23:39;35.40;51.60
31733;DHT22;18312;51.486;7.144;2023-07-09T08:26:06;34.30;53.60
31733;DHT22;18312;51.486;7.144;2023-07-09T08:28:34;33.90;52.70
31733;DHT22;18312;51.486;7.144;2023-07-09T08:31:00;33.70;53.80
31733;DHT22;18312;51.486;7.144;2023-07-09T08:33:29;33.30;54.60
31733;DHT22;18312;51.486;7.144;2023-07-09T08:35:56;33.10;57.80
31733;DHT22;18312;51.486;7.144;2023-07-09T08:38:23;32.80;58.00
31733;DHT22;18312;51.486;7.144;2023-07-09T08:40:54;32.70;55.90
31733;DHT22;18312;51.486;7.144;2023-07-09T08:43:32;32.70;56.40
31733;DHT22;18312;51.486;7.144;2023-07-09T08:46:03;32.70;57.60
31733;DHT22;18312;51.486;7.144;2023-07-09T08:48:37;32.50;57.10
31733;DHT22;18312;51.486;7.144;2023-07-09T08:51:10;32.30;58.20
31733;DHT22;18312;51.486;7.144;2023-07-09T08:53:40;32.40;57.00
31733;DHT22;18312;51.486;7.144;2023-07-09T08:56:09;32.40;57.20
31733;DHT22;18312;51.486;7.144;2023-07-09T08:58:36;32.40;57.00
31733;DHT22;18312;51.486;7.144;2023-07-09T09:01:05;32.40;56.60
31733;DHT22;18312;51.486;7.144;2023-07-09T09:03:39;32.60;57.80
31733;DHT22;18312;51.486;7.144;2023-07-09T09:06:12;34.30;54.30
31733;DHT22;18312;51.486;7.144;2023-07-09T09:08:41;36.60;49.70
31733;DHT22;18312;51.486;7.144;2023-07-09T09:11:14;37.20;50.10
31733;DHT22;18312;51.486;7.144;2023-07-09T09:13:43;38.40;48.60
31733;DHT22;18312;51.486;7.144;2023-07-09T09:16:17;38.50;46.60
31733;DHT22;18312;51.486;7.144;2023-07-09T09:18:49;39.20;46.60
31733;DHT22;18312;51.486;7.144;2023-07-09T09:21:21;38.30;46.60
31733;DHT22;18312;51.486;7.144;2023-07-09T09:23:51;38.60;45.90
31733;DHT22;18312;51.486;7.144;2023-07-09T09:26:24;39.80;45.00
31733;DHT22;18312;51.486;7.144;2023-07-09T09:28:53;40.40;44.80
31733;DHT22;18312;51.486;7.144;2023-07-09T09:31:20;40.20;44.40
31733;DHT22;18312;51.486;7.144;2023-07-09T09:33:49;38.50;46.10
31733;DHT22;18312;51.486;7.144;2023-07-09T09:36:20;37.40;47.70
31733;DHT22;18312;51.486;7.144;2023-07-09T09:38:47;36.30;48.60
31733;DHT22;18312;51.486;7.144;2023-07-09T09:41:16;35.80;48.80
31733;DHT22;18312;51.486;7.144;2023-07-09T09:43:45;36.60;48.30
31733;DHT22;18312;51.486;7.144;2023-07-09T09:46:18;37.20;46.00
31733;DHT22;18312;51.486;7.144;2023-07-09T09:48:48;36.90;46.80
31733;DHT22;18312;51.486;7.144;2023-07-09T09:51:17;35.90;49.00
31733;DHT22;18312;51.486;7.144;2023-07-09T09:53:47;36.00;49.30
31733;DHT22;18312;51.486;7.144;2023-07-09T09:56:18;36.30;49.60
31733;DHT22;18312;51.486;7.144;2023-07-09T09:58:46;36.60;49.60
31733;DHT22;18312;51.486;7.144;2023-07-09T10:01:18;36.80;48.40
31733;DHT22;18312;51.486;7.144;2023-07-09T10:03:47;36.90;49.00
31733;DHT22;18312;51.486;7.144;2023-07-09T10:06:16;36.90;47.10
31733;DHT22;18312;51.486;7.144;2023-07-09T10:08:52;36.80;47.00
31733;DHT22;18312;51.486;7.144;2023-07-09T10:11:27;37.10;49.40
31733;DHT22;18312;51.486;7.144;2023-07-09T10:13:57;37.10;48.90
31733;DHT22;18312;51.486;7.144;2023-07-09T10:16:34;36.70;48.70
31733;DHT22;18312;51.486;7.144;2023-07-09T10:19:12;37.00;49.00
31733;DHT22;18312;51.486;7.144;2023-07-09T10:21:46;36.60;48.10
31733;DHT22;18312;51.486;7.144;2023-07-09T10:24:26;36.50;49.90
31733;DHT22;18312;51.486;7.144;2023-07-09T10:27:03;36.20;50.10
31733;DHT22;18312;51.486;7.144;2023-07-09T10:29:42;36.40;48.80
31733;DHT22;18312;51.486;7.144;2023-07-09T10:32:23;36.80;48.00
31733;DHT22;18312;51.486;7.144;2023-07-09T10:34:56;37.30;48.80
31733;DHT22;18312;51.486;7.144;2023-07-09T10:37:42;37.50;45.80
31733;DHT22;18312;51.486;7.144;2023-07-09T10:40:17;37.50;45.90
31733;DHT22;18312;51.486;7.144;2023-07-09T10:42:53;37.70;46.00
31733;DHT22;18312;51.486;7.144;2023-07-09T10:45:26;37.30;46.30
31733;DHT22;18312;51.486;7.144;2023-07-09T10:47:59;37.10;46.20
31733;DHT22;18312;51.486;7.144;2023-07-09T10:50:29;37.70;46.90
31733;DHT22;18312;51.486;7.144;2023-07-09T10:53:08;37.90;46.90
31733;DHT22;18312;51.486;7.144;2023-07-09T10:55:42;38.30;45.40
31733;DHT22;18312;51.486;7.144;2023-07-09T10:58:22;38.50;45.80
31733;DHT22;18312;51.486;7.144;2023-07-09T11:00:53;38.50;44.90
31733;DHT22;18312;51.486;7.144;2023-07-09T11:03:24;38.40;44.80
31733;DHT22;18312;51.486;7.144;2023-07-09T11:05:55;38.40;44.50
31733;DHT22;18312;51.486;7.144;2023-07-09T11:08:28;38.30;44.40
31733;DHT22;18312;51.486;7.144;2023-07-09T11:10:59;38.40;44.70
31733;DHT22;18312;51.486;7.144;2023-07-09T11:13:31;38.70;44.20
31733;DHT22;18312;51.486;7.144;2023-07-09T11:16:00;38.70;43.60
31733;DHT22;18312;51.486;7.144;2023-07-09T11:18:31;38.90;43.40
31733;DHT22;18312;51.486;7.144;2023-07-09T11:21:01;39.00;42.60
31733;DHT22;18312;51.486;7.144;2023-07-09T11:23:38;38.90;44.20
31733;DHT22;18312;51.486;7.144;2023-07-09T11:26:11;38.80;43.30
31733;DHT22;18312;51.486;7.144;2023-07-09T11:28:47;39.10;42.60
31733;DHT22;18312;51.486;7.144;2023-07-09T11:31:23;38.50;43.00
31733;DHT22;18312;51.486;7.144;2023-07-09T11:34:00;38.60;44.40
31733;DHT22;18312;51.486;7.144;2023-07-09T11:36:29;38.00;43.70
31733;DHT22;18312;51.486;7.144;2023-07-09T11:38:59;37.60;43.80
31733;DHT22;18312;51.486;7.144;2023-07-09T11:41:39;37.80;43.80
31733;DHT22;18312;51.486;7.144;2023-07-09T11:44:16;38.60;43.60
31733;DHT22;18312;51.486;7.144;2023-07-09T11:46:51;39.30;44.40
31733;DHT22;18312;51.486;7.144;2023-07-09T11:49:22;39.40;43.10
31733;DHT22;18312;51.486;7.144;2023-07-09T11:51:54;39.90;42.20
31733;DHT22;18312;51.486;7.144;2023-07-09T11:54:22;39.90;42.40
31733;DHT22;18312;51.486;7.144;2023-07-09T11:56:56;39.50;41.60
31733;DHT22;18312;51.486;7.144;2023-07-09T11:59:23;39.50;41.30
31733;DHT22;18312;51.486;7.144;2023-07-09T12:01:51;39.20;41.60
31733;DHT22;18312;51.486;7.144;2023-07-09T12:04:21;39.10;42.70
31733;DHT22;18312;51.486;7.144;2023-07-09T12:06:51;39.00;41.60
31733;DHT22;18312;51.486;7.144;2023-07-09T12:09:20;39.30;41.40
31733;DHT22;18312;51.486;7.144;2023-07-09T12:11:50;39.20;42.50
31733;DHT22;18312;51.486;7.144;2023-07-09T12:14:18;39.10;41.00
31733;DHT22;18312;51.486;7.144;2023-07-09T12:16:47;38.80;41.20
31733;DHT22;18312;51.486;7.144;2023-07-09T12:19:16;39.20;40.70
31733;DHT22;18312;51.486;7.144;2023-07-09T12:21:45;39.10;41.40
31733;DHT22;18312;51.486;7.144;2023-07-09T12:24:15;39.10;42.80
31733;DHT22;18312;51.486;7.144;2023-07-09T12:26:46;39.20;42.50
31733;DHT22;18312;51.486;7.144;2023-07-09T12:29:14;39.30;41.10
31733;DHT22;18312;51.486;7.144;2023-07-09T12:31:41;39.20;42.10
31733;DHT22;18312;51.486;7.144;2023-07-09T12:34:12;38.90;43.30
31733;DHT22;18312;51.486;7.144;2023-07-09T12:36:44;39.10;42.00
31733;DHT22;18312;51.486;7.144;2023-07-09T12:39:12;39.20;41.40
31733;DHT22;18312;51.486;7.144;2023-07-09T12:41:42;39.20;43.60
31733;DHT22;18312;51.486;7.144;2023-07-09T12:44:16;39.20;41.90
31733;DHT22;18312;51.486;7.144;2023-07-09T12:46:44;39.50;40.80
31733;DHT22;18312;51.486;7.144;2023-07-09T12:49:21;39.00;42.10
31733;DHT22;18312;51.486;7.144;2023-07-09T12:51:49;38.80;41.60
31733;DHT22;18312;51.486;7.144;2023-07-09T12:54:17;39.00;40.90
31733;DHT22;18312;51.486;7.144;2023-07-09T12:56:44;39.10;41.00
31733;DHT22;18312;51.486;7.144;2023-07-09T12:59:19;38.90;39.70
31733;DHT22;18312;51.486;7.144;2023-07-09T13:01:50;38.80;41.30
31733;DHT22;18312;51.486;7.144;2023-07-09T13:04:17;38.30;41.00
31733;DHT22;18312;51.486;7.144;2023-07-09T13:06:45;38.40;41.10
31733;DHT22;18312;51.486;7.144;2023-07-09T13:09:18;38.60;42.30
31733;DHT22;18312;51.486;7.144;2023-07-09T13:11:46;38.80;43.10
31733;DHT22;18312;51.486;7.144;2023-07-09T13:14:21;38.70;43.40
31733;DHT22;18312;51.486;7.144;2023-07-09T13:16:48;38.70;43.30
31733;DHT22;18312;51.486;7.144;2023-07-09T13:19:15;38.50;43.10
31733;DHT22;18312;51.486;7.144;2023-07-09T13:21:43;38.50;41.90
31733;DHT22;18312;51.486;7.144;2023-07-09T13:24:16;38.60;43.40
31733;DHT22;18312;51.486;7.144;2023-07-09T13:26:43;38.60;43.00
31733;DHT22;18312;51.486;7.144;2023-07-09T13:29:14;38.20;42.30
31733;DHT22;18312;51.486;7.144;2023-07-09T13:31:44;37.70;42.50
31733;DHT22;18312;51.486;7.144;2023-07-09T13:34:19;37.70;42.70
31733;DHT22;18312;51.486;7.144;2023-07-09T13:36:46;37.90;45.30
31733;DHT22;18312;51.486;7.144;2023-07-09T13:39:14;37.50;45.20
31733;DHT22;18312;51.486;7.144;2023-07-09T13:41:42;37.40;45.40
31733;DHT22;18312;51.486;7.144;2023-07-09T13:44:12;37.40;44.90
31733;DHT22;18312;51.486;7.144;2023-07-09T13:46:39;37.60;46.20
31733;DHT22;18312;51.486;7.144;2023-07-09T13:49:10;37.60;47.90
31733;DHT22;18312;51.486;7.144;2023-07-09T13:51:40;37.40;47.30
31733;DHT22;18312;51.486;7.144;2023-07-09T13:54:14;36.70;44.90
31733;DHT22;18312;51.486;7.144;2023-07-09T13:56:42;36.70;44.70
31733;DHT22;18312;51.486;7.144;2023-07-09T13:59:14;36.70;46.70
31733;DHT22;18312;51.486;7.144;2023-07-09T14:01:42;36.70;47.90
31733;DHT22;18312;51.486;7.144;2023-07-09T14:04:12;36.10;49.80
31733;DHT22;18312;51.486;7.144;2023-07-09T14:06:39;35.90;49.60
31733;DHT22;18312;51.486;7.144;2023-07-09T14:09:07;35.40;49.90
31733;DHT22;18312;51.486;7.144;2023-07-09T14:11:35;35.20;50.80
31733;DHT22;18312;51.486;7.144;2023-07-09T14:14:15;35.10;50.90
31733;DHT22;18312;51.486;7.144;2023-07-09T14:16:42;34.90;50.60
31733;DHT22;18312;51.486;7.144;2023-07-09T14:19:13;34.60;52.20
31733;DHT22;18312;51.486;7.144;2023-07-09T14:21:40;33.90;52.70
31733;DHT22;18312;51.486;7.144;2023-07-09T14:24:17;33.80;53.10
31733;DHT22;18312;51.486;7.144;2023-07-09T14:26:45;33.80;56.20
31733;DHT22;18312;51.486;7.144;2023-07-09T14:29:12;33.50;62.30
31733;DHT22;18312;51.486;7.144;2023-07-09T14:31:40;33.20;70.30
31733;DHT22;18312;51.486;7.144;2023-07-09T14:34:18;32.70;74.80
31733;DHT22;18312;51.486;7.144;2023-07-09T14:36:45;32.00;74.50
31733;DHT22;18312;51.486;7.144;2023-07-09T14:39:12;30.80;73.30
31733;DHT22;18312;51.486;7.144;2023-07-09T14:41:38;29.50;75.50
31733;DHT22;18312;51.486;7.144;2023-07-09T14:44:20;28.40;78.00
31733;DHT22;18312;51.486;7.144;2023-07-09T14:46:48;27.60;90.10
31733;DHT22;18312;51.486;7.144;2023-07-09T14:49:16;26.60;88.30
31733;DHT22;18312;51.486;7.144;2023-07-09T14:51:43;26.40;92.00
31733;DHT22;18312;51.486;7.144;2023-07-09T14:54:18;25.90;92.90
31733;DHT22;18312;51.486;7.144;2023-07-09T14:56:46;25.60;93.80
31733;DHT22;18312;51.486;7.144;2023-07-09T14:59:13;25.50;92.10
31733;DHT22;18312;51.486;7.144;2023-07-09T15:01:40;25.30;92.70
31733;DHT22;18312;51.486;7.144;2023-07-09T15:04:27;24.80;97.30
31733;DHT22;18312;51.486;7.144;2023-07-09T15:06:55;23.20;99.90
31733;DHT22;18312;51.486;7.144;2023-07-09T15:09:25;21.90;99.90
31733;DHT22;18312;51.486;7.144;2023-07-09T15:11:53;21.20;99.90
31733;DHT22;18312;51.486;7.144;2023-07-09T15:14:21;24.40;99.90
31733;DHT22;18312;51.486;7.144;2023-07-09T15:16:48;25.80;99.90
31733;DHT22;18312;51.486;7.144;2023-07-09T15:19:17;26.40;99.90
31733;DHT22;18312;51.486;7.144;2023-07-09T15:21:45;26.60;99.90
31733;DHT22;18312;51.486;7.144;2023-07-09T15:24:20;26.90;99.90
31733;DHT22;18312;51.486;7.144;2023-07-09T15:26:51;27.10;99.90
31733;DHT22;18312;51.486;7.144;2023-07-09T15:29:19;26.50;99.90
31733;DHT22;18312;51.486;7.144;2023-07-09T15:31:46;27.40;99.90
31733;DHT22;18312;51.486;7.144;2023-07-09T15:34:13;27.70;99.90
31733;DHT22;18312;51.486;7.144;2023-07-09T15:36:41;27.00;99.90
31733;DHT22;18312;51.486;7.144;2023-07-09T15:39:11;26.20;99.90
31733;DHT22;18312;51.486;7.144;2023-07-09T15:41:38;25.50;99.90